createdAt,value
2023-05-20T00:00:49.168Z,6.75
2023-05-20T00:03:17.137Z,10.18
2023-05-20T00:05:44.272Z,6.38
2023-05-20T00:08:11.430Z,9.38
2023-05-20T00:10:38.656Z,9.93
2023-05-20T00:13:06.697Z,6.25
2023-05-20T00:15:37.060Z,6.55
2023-05-20T00:18:04.658Z,8.80
2023-05-20T00:20:31.638Z,7.95
2023-05-20T00:22:58.455Z,9.98
2023-05-20T00:25:25.494Z,10.48
2023-05-20T00:27:52.510Z,9.00
2023-05-20T00:30:19.738Z,8.63
2023-05-20T00:32:47.464Z,8.63
2023-05-20T00:35:14.517Z,10.05
2023-05-20T00:37:44.554Z,10.25
2023-05-20T00:40:13.086Z,7.38
2023-05-20T00:42:42.066Z,9.50
2023-05-20T00:45:09.547Z,9.38
2023-05-20T00:47:39.458Z,7.78
2023-05-20T00:50:07.352Z,10.35
2023-05-20T00:52:34.340Z,11.00
2023-05-20T00:55:01.417Z,6.22
2023-05-20T00:57:28.471Z,8.13
2023-05-20T00:59:55.843Z,14.43
2023-05-20T01:02:24.325Z,9.40
2023-05-20T01:04:51.429Z,8.90
2023-05-20T01:07:18.748Z,8.43
2023-05-20T01:09:48.220Z,5.60
2023-05-20T01:12:29.986Z,8.20
2023-05-20T01:15:10.957Z,4.28
2023-05-20T01:17:47.006Z,9.85
2023-05-20T01:20:14.709Z,11.82
2023-05-20T01:22:54.483Z,7.88
2023-05-20T01:25:21.721Z,9.60
2023-05-20T01:27:49.427Z,10.35
2023-05-20T01:30:16.537Z,12.35
2023-05-20T01:32:48.652Z,16.67
2023-05-20T01:35:16.265Z,8.70
2023-05-20T01:37:43.112Z,9.40
2023-05-20T01:40:14.530Z,6.78
2023-05-20T01:42:43.328Z,7.75
2023-05-20T01:45:10.704Z,10.32
2023-05-20T01:47:37.701Z,9.00
2023-05-20T01:50:04.941Z,8.18
2023-05-20T01:52:32.154Z,10.25
2023-05-20T01:54:59.004Z,9.23
2023-05-20T01:57:26.092Z,7.55
2023-05-20T01:59:53.076Z,8.57
2023-05-20T02:02:20.119Z,10.90
2023-05-20T02:04:50.921Z,8.48
2023-05-20T02:07:19.033Z,8.27
2023-05-20T02:09:46.482Z,8.30
2023-05-20T02:12:17.053Z,11.95
2023-05-20T02:14:45.355Z,8.85
2023-05-20T02:17:12.869Z,8.20
2023-05-20T02:19:39.873Z,9.10
2023-05-20T02:22:07.194Z,7.25
2023-05-20T02:24:34.202Z,10.60
2023-05-20T02:27:01.775Z,11.88
2023-05-20T02:29:28.677Z,13.77
2023-05-20T02:31:55.620Z,11.30
2023-05-20T02:34:22.571Z,10.43
2023-05-20T02:36:49.610Z,7.13
2023-05-20T02:39:17.073Z,10.15
2023-05-20T02:41:44.061Z,11.13
2023-05-20T02:44:10.966Z,8.80
2023-05-20T02:46:38.064Z,11.32
2023-05-20T02:49:05.026Z,10.40
2023-05-20T02:51:33.332Z,6.05
2023-05-20T02:54:00.258Z,11.48
2023-05-20T02:56:27.202Z,12.10
2023-05-20T02:58:54.385Z,9.48
2023-05-20T03:01:22.047Z,12.70
2023-05-20T03:03:49.090Z,14.48
2023-05-20T03:06:16.174Z,15.32
2023-05-20T03:08:42.988Z,11.43
2023-05-20T03:11:09.968Z,11.00
2023-05-20T03:13:36.936Z,11.70
2023-05-20T03:16:03.979Z,10.23
2023-05-20T03:18:31.012Z,11.77
2023-05-20T03:20:58.459Z,12.48
2023-05-20T03:23:25.415Z,10.27
2023-05-20T03:25:52.494Z,14.85
2023-05-20T03:28:19.366Z,8.40
2023-05-20T03:30:46.337Z,11.90
2023-05-20T03:33:13.382Z,9.98
2023-05-20T03:35:40.215Z,10.77
2023-05-20T03:38:07.290Z,12.70
2023-05-20T03:40:34.066Z,9.77
2023-05-20T03:43:01.361Z,12.15
2023-05-20T03:45:28.168Z,11.95
2023-05-20T03:47:55.793Z,8.85
2023-05-20T03:50:22.696Z,10.38
2023-05-20T03:52:49.690Z,13.10
2023-05-20T03:55:17.153Z,8.63
2023-05-20T03:57:43.917Z,8.65
2023-05-20T04:00:14.474Z,10.55
2023-05-20T04:02:41.734Z,10.02
2023-05-20T04:05:10.420Z,12.10
2023-05-20T04:07:37.500Z,9.00
2023-05-20T04:10:04.851Z,11.48
2023-05-20T04:12:32.636Z,12.13
2023-05-20T04:15:02.840Z,16.73
2023-05-20T04:17:30.696Z,12.85
2023-05-20T04:19:59.858Z,10.32
2023-05-20T04:22:27.242Z,15.52
2023-05-20T04:24:54.280Z,17.67
2023-05-20T04:27:21.749Z,14.55
2023-05-20T04:29:55.197Z,16.27
2023-05-20T04:32:22.150Z,9.63
2023-05-20T04:34:50.689Z,13.07
2023-05-20T04:37:17.600Z,15.25
2023-05-20T04:39:44.623Z,11.45
2023-05-20T04:42:11.520Z,15.60
2023-05-20T04:44:38.708Z,13.35
2023-05-20T04:47:08.078Z,18.08
2023-05-20T04:49:34.995Z,14.25
2023-05-20T04:52:02.063Z,20.88
2023-05-20T04:54:28.913Z,9.65
2023-05-20T04:56:55.927Z,14.15
2023-05-20T04:59:22.969Z,12.60
2023-05-20T05:01:49.823Z,17.60
2023-05-20T05:04:16.998Z,15.30
2023-05-20T05:06:43.890Z,15.23
2023-05-20T05:09:10.883Z,13.73
2023-05-20T05:11:37.741Z,13.40
2023-05-20T05:14:04.931Z,11.40
2023-05-20T05:16:31.887Z,13.57
2023-05-20T05:18:58.710Z,14.85
2023-05-20T05:21:25.582Z,14.25
2023-05-20T05:23:52.731Z,16.05
2023-05-20T05:26:19.735Z,18.02
2023-05-20T05:28:46.764Z,12.30
2023-05-20T05:31:13.657Z,14.88
2023-05-20T05:33:40.608Z,11.68
2023-05-20T05:36:07.852Z,11.48
2023-05-20T05:38:34.799Z,14.40
2023-05-20T05:41:01.741Z,17.98
2023-05-20T05:43:28.691Z,14.68
2023-05-20T05:45:56.169Z,17.95
2023-05-20T05:48:23.375Z,16.67
2023-05-20T05:50:50.264Z,20.08
2023-05-20T05:53:17.208Z,18.27
2023-05-20T05:55:45.396Z,10.35
2023-05-20T05:58:13.220Z,16.13
2023-05-20T06:00:40.206Z,14.40
2023-05-20T06:03:07.442Z,12.35
2023-05-20T06:05:37.718Z,13.60
2023-05-20T06:08:05.030Z,12.02
2023-05-20T06:10:32.012Z,11.60
2023-05-20T06:12:59.090Z,18.02
2023-05-20T06:15:26.098Z,12.93
2023-05-20T06:17:52.969Z,15.10
2023-05-20T06:20:19.951Z,14.30
2023-05-20T06:22:46.813Z,13.70
2023-05-20T06:25:14.549Z,13.93
2023-05-20T06:27:42.106Z,14.55
2023-05-20T06:30:09.540Z,12.90
2023-05-20T06:32:36.567Z,16.27
2023-05-20T06:35:03.680Z,12.52
2023-05-20T06:37:30.656Z,11.35
2023-05-20T06:39:58.062Z,12.38
2023-05-20T06:42:25.002Z,17.60
2023-05-20T06:44:51.963Z,19.42
2023-05-20T06:47:19.307Z,16.42
2023-05-20T06:49:47.681Z,16.17
2023-05-20T06:52:15.024Z,14.23
2023-05-20T06:54:42.850Z,15.90
2023-05-20T06:57:10.057Z,13.80
2023-05-20T06:59:40.146Z,16.20
2023-05-20T07:02:07.165Z,12.90
2023-05-20T07:04:34.088Z,12.73
2023-05-20T07:07:02.571Z,12.75
2023-05-20T07:09:29.733Z,19.38
2023-05-20T07:11:56.829Z,14.10
2023-05-20T07:14:23.758Z,10.18
2023-05-20T07:16:50.635Z,15.43
2023-05-20T07:19:17.603Z,12.18
2023-05-20T07:21:44.686Z,15.55
2023-05-20T07:24:11.939Z,11.63
2023-05-20T07:26:38.985Z,12.85
2023-05-20T07:29:06.577Z,17.25
2023-05-20T07:31:33.580Z,14.80
2023-05-20T07:34:00.926Z,13.20
2023-05-20T07:36:28.219Z,12.32
2023-05-20T07:39:03.058Z,9.30
2023-05-20T07:41:32.771Z,12.93
2023-05-20T07:43:59.773Z,13.60
2023-05-20T07:46:26.778Z,13.88
2023-05-20T07:48:53.939Z,10.98
2023-05-20T07:51:20.924Z,12.43
2023-05-20T07:53:48.030Z,13.85
2023-05-20T07:56:14.860Z,11.00
2023-05-20T07:58:42.365Z,12.20
2023-05-20T08:01:09.819Z,12.77
2023-05-20T08:03:37.169Z,14.23
2023-05-20T08:06:04.342Z,13.50
2023-05-20T08:08:31.190Z,11.80
2023-05-20T08:10:58.009Z,11.35
2023-05-20T08:13:25.169Z,12.32
2023-05-20T08:15:54.993Z,13.40
2023-05-20T08:18:22.389Z,11.40
2023-05-20T08:20:49.180Z,10.60
2023-05-20T08:23:16.237Z,16.17
2023-05-20T08:25:43.177Z,12.15
2023-05-20T08:28:09.983Z,11.82
2023-05-20T08:30:36.819Z,13.15
2023-05-20T08:33:03.861Z,13.63
2023-05-20T08:35:31.160Z,15.23
2023-05-20T08:37:58.329Z,10.68
2023-05-20T08:40:26.884Z,10.98
2023-05-20T08:42:53.764Z,13.15
2023-05-20T08:45:21.524Z,12.77
2023-05-20T08:47:48.620Z,12.57
2023-05-20T08:50:16.406Z,9.90
2023-05-20T08:52:48.982Z,13.07
2023-05-20T08:55:22.998Z,10.75
2023-05-20T08:57:51.663Z,13.38
2023-05-20T09:00:19.617Z,11.73
2023-05-20T09:02:46.571Z,12.38
2023-05-20T09:05:14.297Z,15.18
2023-05-20T09:07:42.839Z,12.07
2023-05-20T09:10:10.650Z,10.73
2023-05-20T09:12:38.669Z,9.68
2023-05-20T09:15:08.558Z,11.35
2023-05-20T09:17:38.836Z,15.77
2023-05-20T09:20:10.852Z,12.60
2023-05-20T09:22:39.055Z,10.98
2023-05-20T09:25:06.669Z,11.48
2023-05-20T09:27:33.861Z,9.57
2023-05-20T09:30:01.180Z,12.80
2023-05-20T09:32:29.093Z,15.57
2023-05-20T09:34:56.156Z,11.98
2023-05-20T09:37:22.982Z,8.45
2023-05-20T09:39:59.723Z,9.32
2023-05-20T09:42:40.528Z,10.07
2023-05-20T09:45:09.489Z,8.07
2023-05-20T09:47:42.586Z,7.75
2023-05-20T09:50:09.976Z,7.83
2023-05-20T09:52:40.329Z,6.70
2023-05-20T09:55:08.396Z,12.43
2023-05-20T09:57:35.785Z,6.90
2023-05-20T10:00:05.056Z,4.97
2023-05-20T10:02:33.313Z,9.20
2023-05-20T10:05:02.481Z,6.13
2023-05-20T10:07:48.288Z,5.25
2023-05-20T10:10:33.677Z,9.90
2023-05-20T10:13:04.812Z,5.82
2023-05-20T10:15:50.412Z,6.13
2023-05-20T10:18:40.837Z,4.43
2023-05-20T10:21:17.882Z,5.07
2023-05-20T10:23:45.281Z,4.90
2023-05-20T10:26:12.444Z,5.65
2023-05-20T10:28:40.930Z,7.28
2023-05-20T10:31:18.093Z,6.45
2023-05-20T10:33:46.576Z,5.82
2023-05-20T10:36:24.459Z,4.50
2023-05-20T10:38:55.708Z,7.55
2023-05-20T10:41:24.696Z,3.90
2023-05-20T10:44:05.599Z,10.05
2023-05-20T10:46:48.348Z,4.78
2023-05-20T10:49:23.276Z,5.10
2023-05-20T10:51:53.559Z,3.83
2023-05-20T10:54:20.868Z,4.97
2023-05-20T10:56:54.217Z,4.88
2023-05-20T10:59:24.298Z,3.17
2023-05-20T11:01:51.270Z,6.18
2023-05-20T11:04:19.733Z,4.55
2023-05-20T11:06:56.349Z,7.00
2023-05-20T11:09:23.751Z,10.00
2023-05-20T11:11:52.169Z,7.85
2023-05-20T11:14:20.253Z,8.38
2023-05-20T11:16:48.668Z,7.75
2023-05-20T11:19:16.776Z,4.00
2023-05-20T11:21:46.574Z,6.68
2023-05-20T11:24:13.984Z,5.80
2023-05-20T11:26:41.189Z,5.45
2023-05-20T11:29:08.334Z,4.30
2023-05-20T11:31:35.123Z,4.30
2023-05-20T11:34:02.447Z,6.13
2023-05-20T11:36:30.552Z,5.40
2023-05-20T11:38:59.116Z,3.78
2023-05-20T11:41:29.336Z,4.53
2023-05-20T11:43:59.948Z,3.25
2023-05-20T11:46:27.814Z,3.08
2023-05-20T11:48:55.284Z,4.07
2023-05-20T11:51:27.781Z,4.60
2023-05-20T11:54:02.925Z,7.90
2023-05-20T11:56:31.365Z,3.65
2023-05-20T11:58:59.561Z,4.07
2023-05-20T12:01:28.500Z,5.32
2023-05-20T12:03:55.792Z,6.18
2023-05-20T12:06:22.908Z,4.65
2023-05-20T12:08:49.998Z,2.03
2023-05-20T12:11:17.184Z,4.55
2023-05-20T12:13:44.414Z,4.00
2023-05-20T12:16:11.529Z,4.68
2023-05-20T12:18:38.906Z,3.05
2023-05-20T12:21:05.952Z,3.35
2023-05-20T12:23:34.451Z,2.80
2023-05-20T12:26:02.643Z,3.95
2023-05-20T12:28:29.554Z,2.38
2023-05-20T12:30:59.168Z,5.50
2023-05-20T12:33:28.054Z,1.65
2023-05-20T12:35:54.893Z,2.92
2023-05-20T12:38:22.290Z,3.67
2023-05-20T12:40:49.474Z,4.28
2023-05-20T12:43:16.385Z,2.20
2023-05-20T12:45:43.493Z,3.83
2023-05-20T12:48:11.129Z,3.70
2023-05-20T12:50:38.268Z,3.78
2023-05-20T12:53:05.602Z,2.72
2023-05-20T12:55:32.718Z,4.22
2023-05-20T12:57:59.754Z,3.65
2023-05-20T13:00:26.790Z,3.95
2023-05-20T13:02:54.954Z,5.53
2023-05-20T13:05:22.708Z,6.93
2023-05-20T13:07:49.692Z,5.50
2023-05-20T13:10:17.556Z,5.68
2023-05-20T13:12:47.829Z,5.20
2023-05-20T13:15:14.955Z,3.47
2023-05-20T13:17:42.880Z,7.22
2023-05-20T13:20:11.092Z,5.40
2023-05-20T13:22:38.240Z,3.55
2023-05-20T13:25:09.712Z,4.82
2023-05-20T13:27:36.755Z,7.30
2023-05-20T13:30:04.359Z,1.55
2023-05-20T13:32:31.562Z,2.70
2023-05-20T13:35:01.566Z,2.40
2023-05-20T13:37:28.379Z,2.33
2023-05-20T13:39:55.503Z,4.25
2023-05-20T13:42:22.806Z,4.55
2023-05-20T13:44:49.846Z,2.38
2023-05-20T13:47:16.944Z,4.20
2023-05-20T13:49:43.753Z,3.13
2023-05-20T13:52:10.912Z,3.72
2023-05-20T13:54:37.995Z,6.13
2023-05-20T13:57:08.030Z,3.83
2023-05-20T13:59:35.268Z,3.50
2023-05-20T14:02:02.691Z,3.25
2023-05-20T14:04:31.412Z,2.80
2023-05-20T14:07:00.443Z,2.08
2023-05-20T14:09:27.294Z,4.22
2023-05-20T14:11:54.639Z,4.13
2023-05-20T14:14:21.872Z,5.43
2023-05-20T14:16:48.754Z,4.43
2023-05-20T14:19:15.814Z,3.65
2023-05-20T14:21:42.745Z,2.63
2023-05-20T14:24:09.792Z,1.55
2023-05-20T14:26:36.733Z,2.60
2023-05-20T14:29:03.939Z,3.80
2023-05-20T14:31:31.334Z,3.58
2023-05-20T14:33:58.346Z,1.95
2023-05-20T14:36:25.173Z,3.05
2023-05-20T14:38:52.027Z,6.45
2023-05-20T14:41:19.018Z,4.65
2023-05-20T14:43:46.082Z,3.38
2023-05-20T14:46:13.190Z,3.53
2023-05-20T14:48:40.546Z,4.10
2023-05-20T14:51:07.322Z,3.15
2023-05-20T14:53:34.258Z,3.40
2023-05-20T14:56:01.029Z,2.85
2023-05-20T14:58:30.909Z,2.20
2023-05-20T15:00:57.781Z,5.68
2023-05-20T15:03:25.180Z,2.28
2023-05-20T15:05:52.299Z,2.15
2023-05-20T15:08:19.169Z,3.92
2023-05-20T15:10:46.177Z,2.42
2023-05-20T15:13:13.307Z,1.92
2023-05-20T15:15:40.179Z,0.75
2023-05-20T15:18:07.207Z,2.83
2023-05-20T15:20:37.210Z,2.33
2023-05-20T15:23:04.077Z,1.73
2023-05-20T15:25:31.193Z,1.63
2023-05-20T15:27:58.199Z,2.95
2023-05-20T15:30:25.013Z,2.22
2023-05-20T15:32:53.824Z,3.05
2023-05-20T15:35:21.114Z,3.45
2023-05-20T15:37:48.211Z,4.70
2023-05-20T15:40:16.853Z,5.85
2023-05-20T15:42:43.753Z,3.08
2023-05-20T15:45:10.959Z,2.20
2023-05-20T15:47:39.962Z,5.00
2023-05-20T15:50:11.759Z,1.60
2023-05-20T15:52:39.207Z,1.90
2023-05-20T15:55:06.918Z,2.33
2023-05-20T15:57:33.922Z,3.05
2023-05-20T16:00:01.623Z,3.38
2023-05-20T16:02:28.880Z,3.95
2023-05-20T16:04:55.924Z,4.30
2023-05-20T16:07:22.829Z,2.90
2023-05-20T16:09:49.637Z,3.95
2023-05-20T16:12:17.295Z,2.47
2023-05-20T16:14:44.789Z,2.03
2023-05-20T16:17:11.954Z,2.70
2023-05-20T16:19:38.927Z,1.45
2023-05-20T16:22:05.985Z,3.00
2023-05-20T16:24:32.881Z,1.77
2023-05-20T16:26:59.827Z,2.08
2023-05-20T16:29:26.618Z,3.97
2023-05-20T16:31:53.613Z,5.32
2023-05-20T16:34:20.812Z,3.25
2023-05-20T16:36:47.865Z,4.45
2023-05-20T16:39:15.068Z,2.33
2023-05-20T16:41:42.515Z,2.45
2023-05-20T16:44:09.935Z,1.55
2023-05-20T16:46:37.092Z,1.95
2023-05-20T16:49:04.033Z,3.40
2023-05-20T16:51:31.480Z,2.78
2023-05-20T16:53:58.429Z,1.92
2023-05-20T16:56:26.222Z,3.58
2023-05-20T16:58:53.463Z,2.78
2023-05-20T17:01:21.314Z,3.08
2023-05-20T17:03:48.632Z,2.45
2023-05-20T17:06:15.723Z,1.85
2023-05-20T17:08:42.582Z,2.70
2023-05-20T17:11:09.817Z,3.30
2023-05-20T17:13:36.915Z,3.95
2023-05-20T17:16:04.121Z,3.35
2023-05-20T17:18:31.061Z,3.88
2023-05-20T17:20:57.917Z,2.67
2023-05-20T17:23:24.865Z,2.80
2023-05-20T17:25:51.927Z,1.55
2023-05-20T17:28:18.958Z,2.85
2023-05-20T17:30:45.845Z,2.03
2023-05-20T17:33:13.004Z,3.08
2023-05-20T17:35:40.008Z,5.05
2023-05-20T17:38:06.862Z,6.93
2023-05-20T17:40:33.955Z,2.15
2023-05-20T17:43:01.434Z,2.58
2023-05-20T17:45:28.345Z,3.55
2023-05-20T17:47:57.698Z,2.63
2023-05-20T17:50:24.780Z,2.15
2023-05-20T17:52:51.709Z,4.63
2023-05-20T17:55:19.213Z,3.10
2023-05-20T17:57:46.163Z,2.85
2023-05-20T18:00:13.438Z,3.15
2023-05-20T18:02:47.216Z,1.58
2023-05-20T18:07:44.136Z,1.48
2023-05-20T18:10:11.387Z,2.33
2023-05-20T18:12:38.190Z,1.95
2023-05-20T18:15:06.281Z,3.67
2023-05-20T18:17:33.341Z,2.42
2023-05-20T18:20:00.175Z,4.07
2023-05-20T18:22:27.200Z,2.20
2023-05-20T18:24:54.188Z,1.95
2023-05-20T18:27:21.181Z,2.35
2023-05-20T18:29:49.378Z,1.40
2023-05-20T18:32:16.415Z,1.38
2023-05-20T18:34:43.238Z,2.15
2023-05-20T18:37:10.147Z,2.22
2023-05-20T18:39:37.117Z,1.77
2023-05-20T18:42:05.047Z,3.20
2023-05-20T18:44:31.847Z,1.25
2023-05-20T18:46:58.858Z,3.85
2023-05-20T18:49:25.581Z,1.38
2023-05-20T18:51:52.480Z,3.13
2023-05-20T18:54:19.359Z,2.58
2023-05-20T18:56:48.719Z,2.00
2023-05-20T18:59:15.782Z,3.13
2023-05-20T19:01:42.909Z,1.33
2023-05-20T19:04:09.887Z,1.15
2023-05-20T19:06:37.616Z,3.05
2023-05-20T19:09:04.821Z,1.67
2023-05-20T19:11:34.012Z,2.67
2023-05-20T19:14:01.091Z,1.35
2023-05-20T19:16:28.058Z,1.35
2023-05-20T19:18:55.365Z,1.92
2023-05-20T19:21:22.404Z,2.60
2023-05-20T19:23:49.953Z,1.35
2023-05-20T19:26:18.584Z,2.20
2023-05-20T19:28:45.853Z,1.95
2023-05-20T19:31:21.270Z,2.75
2023-05-20T19:33:49.233Z,1.35
2023-05-20T19:36:16.886Z,2.38
2023-05-20T19:38:44.372Z,3.88
2023-05-20T19:41:12.482Z,2.33
2023-05-20T19:43:39.545Z,1.30
2023-05-20T19:46:09.723Z,1.75
2023-05-20T19:48:36.792Z,3.45
2023-05-20T19:51:03.964Z,4.60
2023-05-20T19:53:31.251Z,2.95
2023-05-20T19:56:01.291Z,4.03
2023-05-20T19:58:28.199Z,2.25
2023-05-20T20:00:55.381Z,0.70
2023-05-20T20:03:22.438Z,2.40
2023-05-20T20:05:49.430Z,0.50
2023-05-20T20:08:17.011Z,1.80
2023-05-20T20:10:43.996Z,1.65
2023-05-20T20:13:10.989Z,3.10
2023-05-20T20:15:37.948Z,1.85
2023-05-20T20:18:05.114Z,3.50
2023-05-20T20:20:39.976Z,2.17
2023-05-20T20:23:08.010Z,1.85
2023-05-20T20:25:39.022Z,0.90
2023-05-20T20:28:06.997Z,2.28
2023-05-20T20:30:34.415Z,1.95
2023-05-20T20:33:01.722Z,1.35
2023-05-20T20:35:28.669Z,2.10
2023-05-20T20:37:55.613Z,3.05
2023-05-20T20:40:22.814Z,1.50
2023-05-20T20:42:50.158Z,2.00
2023-05-20T20:45:17.374Z,2.40
2023-05-20T20:47:44.946Z,3.40
2023-05-20T20:50:11.894Z,0.80
2023-05-20T20:52:39.276Z,2.03
2023-05-20T20:55:07.314Z,2.92
2023-05-20T20:57:35.289Z,1.33
2023-05-20T21:00:23.598Z,2.22
2023-05-20T21:02:51.010Z,3.05
2023-05-20T21:05:18.227Z,1.58
2023-05-20T21:07:50.140Z,2.05
2023-05-20T21:10:18.038Z,2.03
2023-05-20T21:12:44.892Z,1.73
2023-05-20T21:15:13.003Z,1.75
2023-05-20T21:17:40.113Z,3.47
2023-05-20T21:20:07.770Z,2.03
2023-05-20T21:22:34.674Z,3.45
2023-05-20T21:25:01.722Z,1.50
2023-05-20T21:27:31.300Z,1.25
2023-05-20T21:30:01.132Z,2.35
2023-05-20T21:32:28.134Z,2.50
2023-05-20T21:34:56.861Z,2.53
2023-05-20T21:40:08.840Z,3.95
2023-05-20T21:42:36.003Z,4.82
2023-05-20T21:45:03.046Z,2.28
2023-05-20T21:47:30.004Z,1.55
2023-05-20T21:49:56.989Z,2.65
2023-05-20T21:52:23.942Z,5.68
2023-05-20T21:54:50.888Z,3.45
2023-05-20T21:57:17.947Z,3.25
2023-05-20T21:59:44.909Z,2.33
2023-05-20T22:02:11.826Z,4.63
2023-05-20T22:04:38.657Z,1.60
2023-05-20T22:07:05.734Z,3.20
2023-05-20T22:09:32.632Z,2.20
2023-05-20T22:12:02.466Z,5.07
2023-05-20T22:14:32.263Z,3.00
2023-05-20T22:16:59.357Z,0.95
2023-05-20T22:19:26.845Z,2.85
2023-05-20T22:21:54.055Z,2.10
2023-05-20T22:24:21.252Z,6.18
2023-05-20T22:26:50.628Z,3.75
2023-05-20T22:29:17.575Z,3.53
2023-05-20T22:31:44.499Z,2.15
2023-05-20T22:34:11.556Z,4.63
2023-05-20T22:36:39.427Z,0.80
2023-05-20T22:39:07.028Z,2.05
2023-05-20T22:41:33.924Z,2.08
2023-05-20T22:44:00.975Z,1.30
2023-05-20T22:46:28.636Z,2.35
2023-05-20T22:48:55.620Z,2.25
2023-05-20T22:51:22.829Z,1.45
2023-05-20T22:53:49.992Z,6.55
2023-05-20T22:56:17.315Z,2.90
2023-05-20T22:58:45.591Z,1.10
2023-05-20T23:01:12.839Z,2.75
2023-05-20T23:03:40.144Z,3.03
2023-05-20T23:06:07.332Z,1.40
2023-05-20T23:08:34.174Z,1.55
2023-05-20T23:11:03.755Z,2.53
2023-05-20T23:13:31.361Z,1.80
2023-05-20T23:15:58.258Z,4.18
2023-05-20T23:18:25.157Z,1.52
2023-05-20T23:20:52.114Z,2.28
2023-05-20T23:23:25.163Z,3.10
2023-05-20T23:25:59.090Z,2.35
2023-05-20T23:28:26.203Z,2.83
2023-05-20T23:30:53.140Z,4.68
2023-05-20T23:33:24.774Z,3.92
2023-05-20T23:35:52.760Z,3.03
2023-05-20T23:38:33.224Z,2.60
2023-05-20T23:41:00.166Z,2.80
2023-05-20T23:43:27.212Z,3.63
2023-05-20T23:45:54.022Z,1.63
2023-05-20T23:48:21.033Z,1.73
2023-05-20T23:50:48.210Z,3.95
2023-05-20T23:53:14.995Z,1.60
2023-05-20T23:55:45.193Z,3.40
2023-05-20T23:58:12.405Z,2.97
